sensor_id;sensor_type;location;lat;lon;timestamp;P1;durP1;ratioP1;P2;durP2;ratioP2
29906;SDS011;16776;50.958;10.994;2022-10-31T00:00:13;1.20;;;1.10;;
29906;SDS011;16776;50.958;10.994;2022-10-31T00:02:44;1.83;;;1.30;;
29906;SDS011;16776;50.958;10.994;2022-10-31T00:05:11;3.70;;;1.00;;
29906;SDS011;16776;50.958;10.994;2022-10-31T00:07:38;1.65;;;1.30;;
29906;SDS011;16776;50.958;10.994;2022-10-31T00:10:07;3.63;;;1.15;;
29906;SDS011;16776;50.958;10.994;2022-10-31T00:12:34;2.83;;;1.13;;
29906;SDS011;16776;50.958;10.994;2022-10-31T00:15:04;1.67;;;0.98;;
29906;SDS011;16776;50.958;10.994;2022-10-31T00:17:34;1.98;;;0.90;;
29906;SDS011;16776;50.958;10.994;2022-10-31T00:20:02;1.42;;;0.90;;
29906;SDS011;16776;50.958;10.994;2022-10-31T00:22:29;2.45;;;0.75;;
29906;SDS011;16776;50.958;10.994;2022-10-31T00:24:57;2.28;;;1.02;;
29906;SDS011;16776;50.958;10.994;2022-10-31T00:27:31;1.23;;;0.90;;
29906;SDS011;16776;50.958;10.994;2022-10-31T00:29:57;1.70;;;1.30;;
29906;SDS011;16776;50.958;10.994;2022-10-31T00:32:28;2.70;;;1.10;;
29906;SDS011;16776;50.958;10.994;2022-10-31T00:34:55;1.67;;;0.82;;
29906;SDS011;16776;50.958;10.994;2022-10-31T00:37:21;1.75;;;0.98;;
29906;SDS011;16776;50.958;10.994;2022-10-31T00:39:48;3.08;;;1.15;;
29906;SDS011;16776;50.958;10.994;2022-10-31T00:42:16;3.00;;;1.38;;
29906;SDS011;16776;50.958;10.994;2022-10-31T00:44:42;1.23;;;1.10;;
29906;SDS011;16776;50.958;10.994;2022-10-31T00:47:10;1.63;;;1.02;;
29906;SDS011;16776;50.958;10.994;2022-10-31T00:49:37;0.85;;;0.85;;
29906;SDS011;16776;50.958;10.994;2022-10-31T00:52:03;1.15;;;0.93;;
29906;SDS011;16776;50.958;10.994;2022-10-31T00:54:33;2.13;;;0.90;;
29906;SDS011;16776;50.958;10.994;2022-10-31T00:56:59;1.15;;;1.05;;
29906;SDS011;16776;50.958;10.994;2022-10-31T00:59:27;1.98;;;1.15;;
29906;SDS011;16776;50.958;10.994;2022-10-31T01:01:53;2.38;;;1.08;;
29906;SDS011;16776;50.958;10.994;2022-10-31T01:04:20;1.30;;;1.08;;
29906;SDS011;16776;50.958;10.994;2022-10-31T01:06:46;2.03;;;0.85;;
29906;SDS011;16776;50.958;10.994;2022-10-31T01:09:13;1.20;;;0.90;;
29906;SDS011;16776;50.958;10.994;2022-10-31T01:11:40;2.15;;;0.90;;
29906;SDS011;16776;50.958;10.994;2022-10-31T01:14:06;2.75;;;1.13;;
29906;SDS011;16776;50.958;10.994;2022-10-31T01:16:34;1.30;;;1.00;;
29906;SDS011;16776;50.958;10.994;2022-10-31T01:19:00;1.88;;;1.05;;
29906;SDS011;16776;50.958;10.994;2022-10-31T01:21:29;1.42;;;1.27;;
29906;SDS011;16776;50.958;10.994;2022-10-31T01:23:56;2.75;;;1.10;;
29906;SDS011;16776;50.958;10.994;2022-10-31T01:26:23;1.27;;;1.10;;
29906;SDS011;16776;50.958;10.994;2022-10-31T01:28:51;3.03;;;1.13;;
29906;SDS011;16776;50.958;10.994;2022-10-31T01:31:22;0.98;;;0.80;;
29906;SDS011;16776;50.958;10.994;2022-10-31T01:33:53;3.70;;;1.08;;
29906;SDS011;16776;50.958;10.994;2022-10-31T01:36:21;1.80;;;1.15;;
29906;SDS011;16776;50.958;10.994;2022-10-31T01:38:49;1.13;;;0.95;;
29906;SDS011;16776;50.958;10.994;2022-10-31T01:41:17;3.35;;;1.10;;
29906;SDS011;16776;50.958;10.994;2022-10-31T01:43:50;4.30;;;1.10;;
29906;SDS011;16776;50.958;10.994;2022-10-31T01:46:21;1.35;;;1.25;;
29906;SDS011;16776;50.958;10.994;2022-10-31T01:48:50;1.95;;;1.20;;
29906;SDS011;16776;50.958;10.994;2022-10-31T01:51:19;3.40;;;0.93;;
29906;SDS011;16776;50.958;10.994;2022-10-31T01:53:49;1.02;;;0.93;;
29906;SDS011;16776;50.958;10.994;2022-10-31T01:56:17;2.88;;;1.20;;
29906;SDS011;16776;50.958;10.994;2022-10-31T01:58:45;1.20;;;1.05;;
29906;SDS011;16776;50.958;10.994;2022-10-31T02:01:13;1.73;;;1.02;;
29906;SDS011;16776;50.958;10.994;2022-10-31T02:03:42;2.08;;;1.38;;
29906;SDS011;16776;50.958;10.994;2022-10-31T02:06:10;2.08;;;0.90;;
29906;SDS011;16776;50.958;10.994;2022-10-31T02:08:48;2.97;;;1.80;;
29906;SDS011;16776;50.958;10.994;2022-10-31T02:11:18;1.90;;;1.20;;
29906;SDS011;16776;50.958;10.994;2022-10-31T02:13:44;2.00;;;1.38;;
29906;SDS011;16776;50.958;10.994;2022-10-31T02:16:14;2.78;;;1.20;;
29906;SDS011;16776;50.958;10.994;2022-10-31T02:18:40;2.00;;;1.55;;
29906;SDS011;16776;50.958;10.994;2022-10-31T02:21:09;1.63;;;1.52;;
29906;SDS011;16776;50.958;10.994;2022-10-31T02:26:51;1.85;;;1.13;;
29906;SDS011;16776;50.958;10.994;2022-10-31T02:32:28;1.33;;;1.13;;
29906;SDS011;16776;50.958;10.994;2022-10-31T02:35:07;1.90;;;1.08;;
29906;SDS011;16776;50.958;10.994;2022-10-31T02:37:41;3.72;;;1.38;;
29906;SDS011;16776;50.958;10.994;2022-10-31T02:40:17;1.60;;;1.50;;
29906;SDS011;16776;50.958;10.994;2022-10-31T02:42:50;4.00;;;1.50;;
29906;SDS011;16776;50.958;10.994;2022-10-31T02:45:25;3.40;;;1.27;;
29906;SDS011;16776;50.958;10.994;2022-10-31T02:47:56;2.47;;;1.27;;
29906;SDS011;16776;50.958;10.994;2022-10-31T02:50:26;2.63;;;1.00;;
29906;SDS011;16776;50.958;10.994;2022-10-31T02:52:57;3.58;;;1.13;;
29906;SDS011;16776;50.958;10.994;2022-10-31T02:58:26;2.30;;;1.00;;
29906;SDS011;16776;50.958;10.994;2022-10-31T03:01:03;2.28;;;1.10;;
29906;SDS011;16776;50.958;10.994;2022-10-31T03:03:44;0.80;;;0.80;;
29906;SDS011;16776;50.958;10.994;2022-10-31T03:06:33;1.05;;;0.90;;
29906;SDS011;16776;50.958;10.994;2022-10-31T03:09:08;1.90;;;1.05;;
29906;SDS011;16776;50.958;10.994;2022-10-31T03:11:42;1.67;;;1.02;;
29906;SDS011;16776;50.958;10.994;2022-10-31T03:14:17;2.22;;;1.08;;
29906;SDS011;16776;50.958;10.994;2022-10-31T03:16:50;1.80;;;1.30;;
29906;SDS011;16776;50.958;10.994;2022-10-31T03:19:21;1.45;;;0.80;;
29906;SDS011;16776;50.958;10.994;2022-10-31T03:21:52;2.47;;;1.13;;
29906;SDS011;16776;50.958;10.994;2022-10-31T03:24:23;1.10;;;1.00;;
29906;SDS011;16776;50.958;10.994;2022-10-31T03:26:55;4.20;;;1.10;;
29906;SDS011;16776;50.958;10.994;2022-10-31T03:29:26;2.90;;;1.23;;
29906;SDS011;16776;50.958;10.994;2022-10-31T03:31:57;3.53;;;1.40;;
29906;SDS011;16776;50.958;10.994;2022-10-31T03:34:27;1.73;;;0.98;;
29906;SDS011;16776;50.958;10.994;2022-10-31T03:36:57;4.60;;;1.17;;
29906;SDS011;16776;50.958;10.994;2022-10-31T03:39:27;1.17;;;1.08;;
29906;SDS011;16776;50.958;10.994;2022-10-31T03:41:56;1.20;;;1.13;;
29906;SDS011;16776;50.958;10.994;2022-10-31T03:44:26;2.97;;;1.10;;
29906;SDS011;16776;50.958;10.994;2022-10-31T03:46:55;1.45;;;0.93;;
29906;SDS011;16776;50.958;10.994;2022-10-31T03:49:23;1.45;;;1.08;;
29906;SDS011;16776;50.958;10.994;2022-10-31T03:51:54;1.42;;;0.90;;
29906;SDS011;16776;50.958;10.994;2022-10-31T03:54:25;2.03;;;1.15;;
29906;SDS011;16776;50.958;10.994;2022-10-31T03:56:57;3.03;;;1.23;;
29906;SDS011;16776;50.958;10.994;2022-10-31T03:59:32;2.60;;;0.98;;
29906;SDS011;16776;50.958;10.994;2022-10-31T04:02:02;2.80;;;1.05;;
29906;SDS011;16776;50.958;10.994;2022-10-31T04:04:33;2.17;;;0.90;;
29906;SDS011;16776;50.958;10.994;2022-10-31T04:07:02;2.08;;;1.45;;
29906;SDS011;16776;50.958;10.994;2022-10-31T04:09:32;2.10;;;1.13;;
29906;SDS011;16776;50.958;10.994;2022-10-31T04:12:01;2.65;;;1.60;;
29906;SDS011;16776;50.958;10.994;2022-10-31T04:14:33;2.47;;;1.20;;
29906;SDS011;16776;50.958;10.994;2022-10-31T04:17:03;3.47;;;1.48;;
29906;SDS011;16776;50.958;10.994;2022-10-31T04:19:33;2.05;;;1.05;;
29906;SDS011;16776;50.958;10.994;2022-10-31T04:22:00;2.03;;;1.05;;
29906;SDS011;16776;50.958;10.994;2022-10-31T04:24:28;1.42;;;1.23;;
29906;SDS011;16776;50.958;10.994;2022-10-31T04:26:55;2.38;;;0.70;;
29906;SDS011;16776;50.958;10.994;2022-10-31T04:29:21;2.17;;;1.08;;
29906;SDS011;16776;50.958;10.994;2022-10-31T04:31:48;1.50;;;0.85;;
29906;SDS011;16776;50.958;10.994;2022-10-31T04:34:14;1.67;;;1.05;;
29906;SDS011;16776;50.958;10.994;2022-10-31T04:36:41;1.45;;;0.88;;
29906;SDS011;16776;50.958;10.994;2022-10-31T04:39:07;1.80;;;0.95;;
29906;SDS011;16776;50.958;10.994;2022-10-31T04:41:35;2.67;;;1.20;;
29906;SDS011;16776;50.958;10.994;2022-10-31T04:44:01;2.20;;;0.90;;
29906;SDS011;16776;50.958;10.994;2022-10-31T04:46:28;2.90;;;1.20;;
29906;SDS011;16776;50.958;10.994;2022-10-31T04:48:54;2.22;;;1.20;;
29906;SDS011;16776;50.958;10.994;2022-10-31T04:51:21;2.08;;;1.33;;
29906;SDS011;16776;50.958;10.994;2022-10-31T04:53:48;2.97;;;1.13;;
29906;SDS011;16776;50.958;10.994;2022-10-31T04:56:16;1.08;;;0.98;;
29906;SDS011;16776;50.958;10.994;2022-10-31T04:58:44;3.28;;;1.38;;
29906;SDS011;16776;50.958;10.994;2022-10-31T05:01:10;1.42;;;1.00;;
29906;SDS011;16776;50.958;10.994;2022-10-31T05:03:37;2.78;;;0.88;;
29906;SDS011;16776;50.958;10.994;2022-10-31T05:06:04;3.90;;;1.10;;
29906;SDS011;16776;50.958;10.994;2022-10-31T05:08:31;2.53;;;1.25;;
29906;SDS011;16776;50.958;10.994;2022-10-31T05:11:00;1.95;;;1.17;;
29906;SDS011;16776;50.958;10.994;2022-10-31T05:13:28;3.55;;;0.95;;
29906;SDS011;16776;50.958;10.994;2022-10-31T05:15:56;2.45;;;1.17;;
29906;SDS011;16776;50.958;10.994;2022-10-31T05:18:22;2.15;;;1.42;;
29906;SDS011;16776;50.958;10.994;2022-10-31T05:20:49;1.40;;;1.17;;
29906;SDS011;16776;50.958;10.994;2022-10-31T05:23:15;1.38;;;0.88;;
29906;SDS011;16776;50.958;10.994;2022-10-31T05:25:42;2.55;;;1.30;;
29906;SDS011;16776;50.958;10.994;2022-10-31T05:28:08;3.70;;;1.70;;
29906;SDS011;16776;50.958;10.994;2022-10-31T05:30:35;2.42;;;1.50;;
29906;SDS011;16776;50.958;10.994;2022-10-31T05:33:03;3.55;;;1.10;;
29906;SDS011;16776;50.958;10.994;2022-10-31T05:35:30;3.10;;;1.38;;
29906;SDS011;16776;50.958;10.994;2022-10-31T05:37:58;1.48;;;1.20;;
29906;SDS011;16776;50.958;10.994;2022-10-31T05:40:25;3.00;;;1.20;;
29906;SDS011;16776;50.958;10.994;2022-10-31T05:42:53;1.98;;;1.10;;
29906;SDS011;16776;50.958;10.994;2022-10-31T05:45:21;4.85;;;1.08;;
29906;SDS011;16776;50.958;10.994;2022-10-31T05:47:51;2.28;;;1.15;;
29906;SDS011;16776;50.958;10.994;2022-10-31T05:50:19;2.90;;;1.17;;
29906;SDS011;16776;50.958;10.994;2022-10-31T05:52:46;1.20;;;1.10;;
29906;SDS011;16776;50.958;10.994;2022-10-31T05:55:16;2.58;;;1.23;;
29906;SDS011;16776;50.958;10.994;2022-10-31T05:57:42;1.25;;;1.00;;
29906;SDS011;16776;50.958;10.994;2022-10-31T06:00:09;3.13;;;1.10;;
29906;SDS011;16776;50.958;10.994;2022-10-31T06:02:36;1.77;;;0.93;;
29906;SDS011;16776;50.958;10.994;2022-10-31T06:05:05;1.90;;;1.23;;
29906;SDS011;16776;50.958;10.994;2022-10-31T06:07:33;2.30;;;1.10;;
29906;SDS011;16776;50.958;10.994;2022-10-31T06:10:01;4.47;;;1.20;;
29906;SDS011;16776;50.958;10.994;2022-10-31T06:12:28;1.73;;;1.00;;
29906;SDS011;16776;50.958;10.994;2022-10-31T06:14:55;2.80;;;1.23;;
29906;SDS011;16776;50.958;10.994;2022-10-31T06:17:21;1.55;;;1.08;;
29906;SDS011;16776;50.958;10.994;2022-10-31T06:19:50;1.45;;;0.90;;
29906;SDS011;16776;50.958;10.994;2022-10-31T06:22:17;1.45;;;1.35;;
29906;SDS011;16776;50.958;10.994;2022-10-31T06:24:47;3.03;;;1.27;;
29906;SDS011;16776;50.958;10.994;2022-10-31T06:27:14;1.40;;;0.93;;
29906;SDS011;16776;50.958;10.994;2022-10-31T06:29:40;1.58;;;1.00;;
29906;SDS011;16776;50.958;10.994;2022-10-31T06:32:09;1.75;;;1.00;;
29906;SDS011;16776;50.958;10.994;2022-10-31T06:34:36;3.85;;;1.15;;
29906;SDS011;16776;50.958;10.994;2022-10-31T06:37:02;1.27;;;1.13;;
29906;SDS011;16776;50.958;10.994;2022-10-31T06:39:29;1.15;;;1.05;;
29906;SDS011;16776;50.958;10.994;2022-10-31T06:41:57;2.78;;;1.30;;
29906;SDS011;16776;50.958;10.994;2022-10-31T06:44:23;3.22;;;1.17;;
29906;SDS011;16776;50.958;10.994;2022-10-31T06:46:50;2.72;;;1.20;;
29906;SDS011;16776;50.958;10.994;2022-10-31T06:49:16;1.50;;;0.88;;
29906;SDS011;16776;50.958;10.994;2022-10-31T06:51:43;1.90;;;1.35;;
29906;SDS011;16776;50.958;10.994;2022-10-31T06:54:15;1.52;;;1.05;;
29906;SDS011;16776;50.958;10.994;2022-10-31T06:56:42;1.92;;;1.00;;
29906;SDS011;16776;50.958;10.994;2022-10-31T06:59:09;1.38;;;0.82;;
29906;SDS011;16776;50.958;10.994;2022-10-31T07:01:36;3.83;;;0.95;;
29906;SDS011;16776;50.958;10.994;2022-10-31T07:04:02;1.38;;;0.80;;
29906;SDS011;16776;50.958;10.994;2022-10-31T07:06:29;1.77;;;1.08;;
29906;SDS011;16776;50.958;10.994;2022-10-31T07:08:56;3.10;;;1.27;;
29906;SDS011;16776;50.958;10.994;2022-10-31T07:11:24;2.03;;;0.93;;
29906;SDS011;16776;50.958;10.994;2022-10-31T07:13:50;1.92;;;1.40;;
29906;SDS011;16776;50.958;10.994;2022-10-31T07:16:18;2.60;;;1.10;;
29906;SDS011;16776;50.958;10.994;2022-10-31T07:18:45;1.60;;;1.10;;
29906;SDS011;16776;50.958;10.994;2022-10-31T07:21:11;2.92;;;1.92;;
29906;SDS011;16776;50.958;10.994;2022-10-31T07:23:38;1.08;;;0.85;;
29906;SDS011;16776;50.958;10.994;2022-10-31T07:26:04;2.38;;;0.98;;
29906;SDS011;16776;50.958;10.994;2022-10-31T07:28:31;1.33;;;0.95;;
29906;SDS011;16776;50.958;10.994;2022-10-31T07:30:57;1.58;;;0.90;;
29906;SDS011;16776;50.958;10.994;2022-10-31T07:33:25;1.55;;;0.90;;
29906;SDS011;16776;50.958;10.994;2022-10-31T07:35:52;1.02;;;0.90;;
29906;SDS011;16776;50.958;10.994;2022-10-31T07:38:19;1.02;;;0.90;;
29906;SDS011;16776;50.958;10.994;2022-10-31T07:40:49;2.45;;;1.10;;
29906;SDS011;16776;50.958;10.994;2022-10-31T07:43:17;2.47;;;1.00;;
29906;SDS011;16776;50.958;10.994;2022-10-31T07:45:43;2.15;;;0.77;;
29906;SDS011;16776;50.958;10.994;2022-10-31T07:48:10;1.30;;;0.88;;
29906;SDS011;16776;50.958;10.994;2022-10-31T07:50:37;1.13;;;1.00;;
29906;SDS011;16776;50.958;10.994;2022-10-31T07:53:05;1.33;;;1.10;;
29906;SDS011;16776;50.958;10.994;2022-10-31T07:55:32;1.38;;;1.08;;
29906;SDS011;16776;50.958;10.994;2022-10-31T07:57:59;1.25;;;1.05;;
29906;SDS011;16776;50.958;10.994;2022-10-31T08:00:27;1.63;;;1.02;;
29906;SDS011;16776;50.958;10.994;2022-10-31T08:03:00;2.78;;;1.13;;
29906;SDS011;16776;50.958;10.994;2022-10-31T08:05:27;1.73;;;1.00;;
29906;SDS011;16776;50.958;10.994;2022-10-31T08:07:56;1.02;;;0.93;;
29906;SDS011;16776;50.958;10.994;2022-10-31T08:10:23;2.08;;;1.48;;
29906;SDS011;16776;50.958;10.994;2022-10-31T08:12:54;2.75;;;1.33;;
29906;SDS011;16776;50.958;10.994;2022-10-31T08:15:25;1.53;;;0.80;;
29906;SDS011;16776;50.958;10.994;2022-10-31T08:17:52;3.17;;;1.80;;
29906;SDS011;16776;50.958;10.994;2022-10-31T08:20:18;2.03;;;1.30;;
29906;SDS011;16776;50.958;10.994;2022-10-31T08:22:52;2.67;;;1.17;;
29906;SDS011;16776;50.958;10.994;2022-10-31T08:25:21;2.50;;;1.27;;
29906;SDS011;16776;50.958;10.994;2022-10-31T08:27:49;1.40;;;1.30;;
29906;SDS011;16776;50.958;10.994;2022-10-31T08:30:16;1.35;;;1.15;;
29906;SDS011;16776;50.958;10.994;2022-10-31T08:32:46;2.97;;;1.25;;
29906;SDS011;16776;50.958;10.994;2022-10-31T08:35:13;2.35;;;1.38;;
29906;SDS011;16776;50.958;10.994;2022-10-31T08:37:39;1.08;;;0.98;;
29906;SDS011;16776;50.958;10.994;2022-10-31T08:40:06;3.03;;;1.20;;
29906;SDS011;16776;50.958;10.994;2022-10-31T08:42:34;1.95;;;1.40;;
29906;SDS011;16776;50.958;10.994;2022-10-31T08:45:01;2.25;;;1.00;;
29906;SDS011;16776;50.958;10.994;2022-10-31T08:47:27;2.35;;;1.40;;
29906;SDS011;16776;50.958;10.994;2022-10-31T08:49:54;1.75;;;0.95;;
29906;SDS011;16776;50.958;10.994;2022-10-31T08:52:22;1.98;;;1.50;;
29906;SDS011;16776;50.958;10.994;2022-10-31T08:54:49;3.05;;;1.40;;
29906;SDS011;16776;50.958;10.994;2022-10-31T08:57:15;1.80;;;1.20;;
29906;SDS011;16776;50.958;10.994;2022-10-31T08:59:43;2.63;;;1.40;;
29906;SDS011;16776;50.958;10.994;2022-10-31T09:02:09;2.60;;;1.48;;
29906;SDS011;16776;50.958;10.994;2022-10-31T09:04:38;1.70;;;1.13;;
29906;SDS011;16776;50.958;10.994;2022-10-31T09:07:04;1.77;;;1.33;;
29906;SDS011;16776;50.958;10.994;2022-10-31T09:09:31;1.50;;;1.23;;
29906;SDS011;16776;50.958;10.994;2022-10-31T09:11:57;4.28;;;1.50;;
29906;SDS011;16776;50.958;10.994;2022-10-31T09:14:26;1.38;;;1.27;;
29906;SDS011;16776;50.958;10.994;2022-10-31T09:16:54;1.83;;;1.25;;
29906;SDS011;16776;50.958;10.994;2022-10-31T09:19:20;1.58;;;1.33;;
29906;SDS011;16776;50.958;10.994;2022-10-31T09:21:46;1.98;;;1.48;;
29906;SDS011;16776;50.958;10.994;2022-10-31T09:24:13;1.75;;;1.63;;
29906;SDS011;16776;50.958;10.994;2022-10-31T09:26:39;2.75;;;1.45;;
29906;SDS011;16776;50.958;10.994;2022-10-31T09:29:06;2.63;;;1.50;;
29906;SDS011;16776;50.958;10.994;2022-10-31T09:31:34;2.22;;;1.75;;
29906;SDS011;16776;50.958;10.994;2022-10-31T09:34:02;3.20;;;1.63;;
29906;SDS011;16776;50.958;10.994;2022-10-31T09:36:29;2.30;;;1.75;;
29906;SDS011;16776;50.958;10.994;2022-10-31T09:38:56;1.48;;;1.30;;
29906;SDS011;16776;50.958;10.994;2022-10-31T09:41:23;1.52;;;1.40;;
29906;SDS011;16776;50.958;10.994;2022-10-31T09:43:56;1.27;;;1.17;;
29906;SDS011;16776;50.958;10.994;2022-10-31T09:46:32;1.98;;;1.20;;
29906;SDS011;16776;50.958;10.994;2022-10-31T09:49:21;1.85;;;1.27;;
29906;SDS011;16776;50.958;10.994;2022-10-31T09:52:01;2.28;;;1.23;;
29906;SDS011;16776;50.958;10.994;2022-10-31T09:54:32;2.83;;;1.55;;
29906;SDS011;16776;50.958;10.994;2022-10-31T09:57:08;2.55;;;1.52;;
29906;SDS011;16776;50.958;10.994;2022-10-31T09:59:41;2.03;;;1.55;;
29906;SDS011;16776;50.958;10.994;2022-10-31T10:02:12;2.28;;;1.35;;
29906;SDS011;16776;50.958;10.994;2022-10-31T10:04:46;4.63;;;2.10;;
29906;SDS011;16776;50.958;10.994;2022-10-31T10:07:19;2.80;;;1.15;;
29906;SDS011;16776;50.958;10.994;2022-10-31T10:09:51;1.90;;;1.45;;
29906;SDS011;16776;50.958;10.994;2022-10-31T10:12:19;1.52;;;1.35;;
29906;SDS011;16776;50.958;10.994;2022-10-31T10:15:02;2.97;;;1.67;;
29906;SDS011;16776;50.958;10.994;2022-10-31T10:17:49;2.08;;;1.88;;
29906;SDS011;16776;50.958;10.994;2022-10-31T10:20:28;2.90;;;1.60;;
29906;SDS011;16776;50.958;10.994;2022-10-31T10:23:03;1.63;;;1.50;;
29906;SDS011;16776;50.958;10.994;2022-10-31T10:25:53;2.40;;;1.40;;
29906;SDS011;16776;50.958;10.994;2022-10-31T10:28:27;2.50;;;1.35;;
29906;SDS011;16776;50.958;10.994;2022-10-31T10:31:03;3.08;;;1.80;;
29906;SDS011;16776;50.958;10.994;2022-10-31T10:33:35;1.80;;;1.33;;
29906;SDS011;16776;50.958;10.994;2022-10-31T10:36:08;2.23;;;1.60;;
29906;SDS011;16776;50.958;10.994;2022-10-31T10:38:39;3.58;;;1.98;;
29906;SDS011;16776;50.958;10.994;2022-10-31T10:41:16;2.03;;;1.40;;
29906;SDS011;16776;50.958;10.994;2022-10-31T10:43:44;2.45;;;1.80;;
29906;SDS011;16776;50.958;10.994;2022-10-31T10:46:21;3.83;;;1.38;;
29906;SDS011;16776;50.958;10.994;2022-10-31T10:49:12;2.88;;;1.30;;
29906;SDS011;16776;50.958;10.994;2022-10-31T10:51:45;2.38;;;1.52;;
29906;SDS011;16776;50.958;10.994;2022-10-31T10:57:21;2.28;;;1.38;;
29906;SDS011;16776;50.958;10.994;2022-10-31T10:59:53;1.40;;;1.30;;
29906;SDS011;16776;50.958;10.994;2022-10-31T11:02:20;1.50;;;1.30;;
29906;SDS011;16776;50.958;10.994;2022-10-31T11:04:52;2.28;;;1.52;;
29906;SDS011;16776;50.958;10.994;2022-10-31T11:07:22;5.13;;;2.10;;
29906;SDS011;16776;50.958;10.994;2022-10-31T11:09:49;1.75;;;1.50;;
29906;SDS011;16776;50.958;10.994;2022-10-31T11:12:17;2.53;;;1.52;;
29906;SDS011;16776;50.958;10.994;2022-10-31T11:14:47;2.72;;;1.83;;
29906;SDS011;16776;50.958;10.994;2022-10-31T11:17:26;3.55;;;2.10;;
29906;SDS011;16776;50.958;10.994;2022-10-31T11:20:00;1.65;;;1.10;;
29906;SDS011;16776;50.958;10.994;2022-10-31T11:22:30;1.90;;;1.38;;
29906;SDS011;16776;50.958;10.994;2022-10-31T11:24:57;2.58;;;1.70;;
29906;SDS011;16776;50.958;10.994;2022-10-31T11:27:25;4.15;;;1.55;;
29906;SDS011;16776;50.958;10.994;2022-10-31T11:29:52;3.13;;;1.40;;
29906;SDS011;16776;50.958;10.994;2022-10-31T11:32:29;2.70;;;1.60;;
29906;SDS011;16776;50.958;10.994;2022-10-31T11:34:56;1.60;;;1.33;;
29906;SDS011;16776;50.958;10.994;2022-10-31T11:37:25;1.35;;;1.25;;
29906;SDS011;16776;50.958;10.994;2022-10-31T11:39:59;3.53;;;1.88;;
29906;SDS011;16776;50.958;10.994;2022-10-31T11:42:34;2.15;;;1.65;;
29906;SDS011;16776;50.958;10.994;2022-10-31T11:45:05;2.83;;;1.67;;
29906;SDS011;16776;50.958;10.994;2022-10-31T11:47:52;2.90;;;1.50;;
29906;SDS011;16776;50.958;10.994;2022-10-31T11:50:26;1.60;;;1.50;;
29906;SDS011;16776;50.958;10.994;2022-10-31T11:53:02;3.00;;;1.88;;
29906;SDS011;16776;50.958;10.994;2022-10-31T11:55:34;1.70;;;1.60;;
29906;SDS011;16776;50.958;10.994;2022-10-31T11:58:03;3.95;;;1.90;;
29906;SDS011;16776;50.958;10.994;2022-10-31T12:00:31;2.90;;;1.48;;
29906;SDS011;16776;50.958;10.994;2022-10-31T12:03:15;2.75;;;1.77;;
29906;SDS011;16776;50.958;10.994;2022-10-31T12:05:53;2.35;;;1.50;;
29906;SDS011;16776;50.958;10.994;2022-10-31T12:08:26;2.60;;;1.50;;
29906;SDS011;16776;50.958;10.994;2022-10-31T12:10:58;2.92;;;1.60;;
29906;SDS011;16776;50.958;10.994;2022-10-31T12:13:33;2.40;;;1.90;;
29906;SDS011;16776;50.958;10.994;2022-10-31T12:16:03;3.22;;;1.75;;
29906;SDS011;16776;50.958;10.994;2022-10-31T12:18:49;3.58;;;1.90;;
29906;SDS011;16776;50.958;10.994;2022-10-31T12:21:31;1.88;;;1.60;;
29906;SDS011;16776;50.958;10.994;2022-10-31T12:24:12;4.45;;;2.10;;
29906;SDS011;16776;50.958;10.994;2022-10-31T12:26:50;2.80;;;1.95;;
29906;SDS011;16776;50.958;10.994;2022-10-31T12:29:44;4.53;;;2.17;;
29906;SDS011;16776;50.958;10.994;2022-10-31T12:32:32;2.80;;;2.00;;
29906;SDS011;16776;50.958;10.994;2022-10-31T12:35:09;2.88;;;2.03;;
29906;SDS011;16776;50.958;10.994;2022-10-31T12:38:02;4.05;;;2.25;;
29906;SDS011;16776;50.958;10.994;2022-10-31T12:40:47;2.53;;;2.17;;
29906;SDS011;16776;50.958;10.994;2022-10-31T12:43:31;2.95;;;1.92;;
29906;SDS011;16776;50.958;10.994;2022-10-31T12:46:04;3.22;;;1.98;;
29906;SDS011;16776;50.958;10.994;2022-10-31T12:48:40;3.33;;;2.20;;
29906;SDS011;16776;50.958;10.994;2022-10-31T12:51:21;2.30;;;1.88;;
29906;SDS011;16776;50.958;10.994;2022-10-31T12:53:58;2.70;;;1.80;;
29906;SDS011;16776;50.958;10.994;2022-10-31T12:56:41;2.17;;;1.95;;
29906;SDS011;16776;50.958;10.994;2022-10-31T12:59:16;1.67;;;1.52;;
29906;SDS011;16776;50.958;10.994;2022-10-31T13:01:47;4.35;;;2.35;;
29906;SDS011;16776;50.958;10.994;2022-10-31T13:04:21;2.92;;;2.17;;
29906;SDS011;16776;50.958;10.994;2022-10-31T13:06:57;3.67;;;2.20;;
29906;SDS011;16776;50.958;10.994;2022-10-31T13:09:28;2.03;;;1.52;;
29906;SDS011;16776;50.958;10.994;2022-10-31T13:12:01;2.22;;;1.73;;
29906;SDS011;16776;50.958;10.994;2022-10-31T13:14:35;4.28;;;2.00;;
29906;SDS011;16776;50.958;10.994;2022-10-31T13:17:05;2.70;;;1.70;;
29906;SDS011;16776;50.958;10.994;2022-10-31T13:19:34;2.58;;;1.52;;
29906;SDS011;16776;50.958;10.994;2022-10-31T13:22:05;2.40;;;1.80;;
29906;SDS011;16776;50.958;10.994;2022-10-31T13:24:35;2.63;;;1.70;;
29906;SDS011;16776;50.958;10.994;2022-10-31T13:27:09;2.60;;;2.35;;
29906;SDS011;16776;50.958;10.994;2022-10-31T13:29:42;2.03;;;1.48;;
29906;SDS011;16776;50.958;10.994;2022-10-31T13:32:16;1.63;;;1.52;;
29906;SDS011;16776;50.958;10.994;2022-10-31T13:34:45;2.47;;;1.45;;
29906;SDS011;16776;50.958;10.994;2022-10-31T13:37:17;3.05;;;1.92;;
29906;SDS011;16776;50.958;10.994;2022-10-31T13:39:58;3.05;;;1.90;;
29906;SDS011;16776;50.958;10.994;2022-10-31T13:42:37;3.75;;;1.48;;
29906;SDS011;16776;50.958;10.994;2022-10-31T13:45:24;3.90;;;1.60;;
29906;SDS011;16776;50.958;10.994;2022-10-31T13:47:55;2.95;;;1.38;;
29906;SDS011;16776;50.958;10.994;2022-10-31T13:50:24;4.70;;;1.73;;
29906;SDS011;16776;50.958;10.994;2022-10-31T13:52:52;3.22;;;1.67;;
29906;SDS011;16776;50.958;10.994;2022-10-31T13:55:37;2.53;;;1.80;;
29906;SDS011;16776;50.958;10.994;2022-10-31T13:58:19;2.83;;;2.00;;
29906;SDS011;16776;50.958;10.994;2022-10-31T14:00:58;4.00;;;2.22;;
29906;SDS011;16776;50.958;10.994;2022-10-31T14:03:38;2.35;;;1.88;;
29906;SDS011;16776;50.958;10.994;2022-10-31T14:06:06;2.05;;;1.65;;
29906;SDS011;16776;50.958;10.994;2022-10-31T14:08:36;5.25;;;2.05;;
29906;SDS011;16776;50.958;10.994;2022-10-31T14:11:06;3.05;;;1.70;;
29906;SDS011;16776;50.958;10.994;2022-10-31T14:13:35;1.83;;;1.65;;
29906;SDS011;16776;50.958;10.994;2022-10-31T14:16:16;4.82;;;2.20;;
29906;SDS011;16776;50.958;10.994;2022-10-31T14:18:47;2.25;;;1.58;;
29906;SDS011;16776;50.958;10.994;2022-10-31T14:21:25;1.88;;;1.55;;
29906;SDS011;16776;50.958;10.994;2022-10-31T14:23:54;1.77;;;1.55;;
29906;SDS011;16776;50.958;10.994;2022-10-31T14:26:34;2.35;;;1.48;;
29906;SDS011;16776;50.958;10.994;2022-10-31T14:29:20;2.22;;;1.75;;
29906;SDS011;16776;50.958;10.994;2022-10-31T14:31:54;2.17;;;1.60;;
29906;SDS011;16776;50.958;10.994;2022-10-31T14:34:23;1.35;;;1.25;;
29906;SDS011;16776;50.958;10.994;2022-10-31T14:37:01;1.90;;;1.70;;
29906;SDS011;16776;50.958;10.994;2022-10-31T14:39:41;1.85;;;1.45;;
29906;SDS011;16776;50.958;10.994;2022-10-31T14:42:23;2.53;;;1.52;;
29906;SDS011;16776;50.958;10.994;2022-10-31T14:47:56;3.60;;;2.00;;
29906;SDS011;16776;50.958;10.994;2022-10-31T14:53:19;3.30;;;2.10;;
29906;SDS011;16776;50.958;10.994;2022-10-31T14:55:49;3.58;;;2.10;;
29906;SDS011;16776;50.958;10.994;2022-10-31T14:58:19;4.53;;;2.15;;
29906;SDS011;16776;50.958;10.994;2022-10-31T15:00:48;3.55;;;1.80;;
29906;SDS011;16776;50.958;10.994;2022-10-31T15:03:18;3.65;;;2.22;;
29906;SDS011;16776;50.958;10.994;2022-10-31T15:05:52;3.53;;;2.15;;
29906;SDS011;16776;50.958;10.994;2022-10-31T15:08:26;3.17;;;2.08;;
29906;SDS011;16776;50.958;10.994;2022-10-31T15:10:58;3.30;;;2.25;;